createdAt,value
2022-10-24T00:01:25.287Z,15.64
2022-10-24T00:06:48.329Z,15.58
2022-10-24T00:12:11.404Z,15.58
2022-10-24T00:17:36.174Z,15.69
2022-10-24T00:22:59.196Z,15.79
2022-10-24T00:28:22.258Z,15.89
2022-10-24T00:33:47.501Z,15.84
2022-10-24T00:39:12.318Z,15.72
2022-10-24T00:44:38.764Z,15.81
2022-10-24T00:50:07.527Z,15.72
2022-10-24T00:55:30.688Z,15.73
2022-10-24T01:00:53.938Z,15.70
2022-10-24T01:06:31.061Z,15.75
2022-10-24T01:12:03.205Z,15.69
2022-10-24T01:17:34.069Z,15.78
2022-10-24T01:23:08.740Z,15.88
2022-10-24T01:28:34.105Z,15.89
2022-10-24T01:34:03.014Z,16.06
2022-10-24T01:39:28.950Z,16.04
2022-10-24T01:44:55.879Z,15.96
2022-10-24T01:50:22.303Z,15.95
2022-10-24T01:55:46.067Z,16.05
2022-10-24T02:01:13.311Z,15.96
2022-10-24T02:06:40.822Z,15.95
2022-10-24T02:12:04.333Z,15.93
2022-10-24T02:22:59.940Z,15.97
2022-10-24T02:28:24.627Z,15.90
2022-10-24T02:33:49.679Z,15.93
2022-10-24T02:39:14.416Z,15.89
2022-10-24T02:44:38.018Z,15.75
2022-10-24T02:50:01.186Z,15.73
2022-10-24T02:55:25.970Z,15.66
2022-10-24T03:00:49.082Z,15.71
2022-10-24T03:06:12.519Z,15.74
2022-10-24T03:11:36.996Z,15.79
2022-10-24T03:16:59.981Z,15.80
2022-10-24T03:22:24.694Z,15.80
2022-10-24T03:27:50.760Z,15.88
2022-10-24T03:33:13.770Z,15.78
2022-10-24T03:38:36.778Z,15.72
2022-10-24T03:44:01.158Z,15.69
2022-10-24T03:49:24.239Z,15.72
2022-10-24T03:54:47.386Z,15.65
2022-10-24T04:00:12.852Z,15.67
2022-10-24T04:05:35.876Z,15.71
2022-10-24T04:10:58.953Z,15.75
2022-10-24T04:16:24.076Z,15.69
2022-10-24T04:21:48.023Z,15.72
2022-10-24T04:27:11.194Z,15.77
2022-10-24T04:32:35.614Z,15.74
2022-10-24T04:37:58.790Z,15.80
2022-10-24T04:43:22.986Z,15.87
2022-10-24T04:48:47.503Z,15.73
2022-10-24T04:54:10.623Z,15.78
2022-10-24T04:59:33.736Z,15.76
2022-10-24T05:04:58.165Z,15.82
2022-10-24T05:10:21.478Z,15.85
2022-10-24T05:15:44.822Z,15.79
2022-10-24T05:21:09.263Z,15.96
2022-10-24T05:26:32.318Z,15.84
2022-10-24T05:31:55.299Z,15.92
2022-10-24T05:37:19.782Z,16.05
2022-10-24T05:42:43.265Z,16.03
2022-10-24T05:48:07.374Z,16.01
2022-10-24T05:53:31.767Z,16.13
2022-10-24T05:58:57.418Z,16.24
2022-10-24T06:04:20.565Z,16.26
2022-10-24T06:09:45.217Z,16.18
2022-10-24T06:15:09.715Z,16.28
2022-10-24T06:20:32.822Z,16.30
2022-10-24T06:25:57.422Z,16.30
2022-10-24T06:31:20.880Z,16.21
2022-10-24T06:36:45.709Z,16.15
2022-10-24T06:42:12.548Z,16.02
2022-10-24T06:47:35.621Z,16.05
2022-10-24T06:52:58.796Z,15.95
2022-10-24T06:58:23.266Z,16.02
2022-10-24T07:04:10.707Z,15.78
2022-10-24T07:09:33.812Z,15.39
2022-10-24T07:14:58.262Z,15.19
2022-10-24T07:20:21.517Z,15.24
2022-10-24T07:25:48.564Z,15.38
2022-10-24T07:31:15.088Z,15.39
2022-10-24T07:36:41.539Z,15.43
2022-10-24T07:42:06.889Z,15.26
2022-10-24T07:47:32.569Z,15.41
2022-10-24T07:52:55.625Z,15.60
2022-10-24T07:58:18.750Z,15.47
2022-10-24T08:03:43.498Z,15.23
2022-10-24T08:09:06.598Z,15.21
2022-10-24T08:14:29.747Z,15.15
2022-10-24T08:19:54.644Z,15.18
2022-10-24T08:25:17.880Z,15.28
2022-10-24T08:30:41.070Z,15.38
2022-10-24T08:36:08.091Z,15.30
2022-10-24T08:41:34.205Z,15.01
2022-10-24T08:46:59.181Z,15.07
2022-10-24T08:52:29.443Z,14.97
2022-10-24T08:57:57.336Z,15.06
2022-10-24T09:03:43.635Z,15.61
2022-10-24T09:09:19.965Z,15.76
2022-10-24T09:14:44.974Z,15.94
2022-10-24T09:20:23.560Z,16.10
2022-10-24T09:25:50.246Z,16.13
2022-10-24T09:31:17.063Z,16.54
2022-10-24T09:36:40.976Z,16.48
2022-10-24T09:42:05.587Z,16.48
2022-10-24T09:47:30.124Z,16.38
2022-10-24T09:52:55.286Z,16.55
2022-10-24T09:58:22.881Z,16.85
2022-10-24T10:04:06.084Z,17.34
2022-10-24T10:09:34.933Z,17.52
2022-10-24T10:14:59.615Z,17.08
2022-10-24T10:20:29.446Z,16.79
2022-10-24T10:26:04.016Z,16.85
2022-10-24T10:31:35.269Z,17.00
2022-10-24T10:37:24.112Z,16.84
2022-10-24T10:42:57.098Z,17.18
2022-10-24T10:48:36.082Z,17.35
2022-10-24T10:54:04.408Z,17.43
2022-10-24T10:59:36.523Z,16.87
2022-10-24T11:05:10.224Z,16.25
2022-10-24T11:10:36.385Z,16.10
2022-10-24T11:16:06.967Z,16.32
2022-10-24T11:21:34.415Z,16.57
2022-10-24T11:27:04.928Z,16.65
2022-10-24T11:32:32.602Z,16.73
2022-10-24T11:37:59.654Z,16.24
2022-10-24T11:43:25.960Z,15.85
2022-10-24T11:48:55.211Z,15.68
2022-10-24T11:54:23.881Z,15.97
2022-10-24T11:59:47.096Z,15.83
2022-10-24T12:05:32.368Z,16.12
2022-10-24T12:11:20.520Z,16.03
2022-10-24T12:16:52.517Z,16.06
2022-10-24T12:22:17.924Z,16.11
2022-10-24T12:27:43.121Z,16.41
2022-10-24T12:33:12.100Z,16.19
2022-10-24T12:39:05.571Z,16.33
2022-10-24T12:44:50.494Z,16.42
2022-10-24T12:50:50.814Z,16.19
2022-10-24T13:01:53.625Z,16.43
2022-10-24T13:07:25.219Z,16.62
2022-10-24T13:12:58.578Z,16.35
2022-10-24T13:18:32.039Z,16.24
2022-10-24T13:24:11.356Z,16.31
2022-10-24T13:30:12.192Z,16.42
2022-10-24T13:35:37.052Z,16.63
2022-10-24T13:41:00.458Z,16.84
2022-10-24T13:46:27.838Z,16.86
2022-10-24T13:51:54.005Z,16.79
2022-10-24T13:57:27.649Z,16.89
2022-10-24T14:02:51.096Z,16.84
2022-10-24T14:08:25.147Z,16.63
2022-10-24T14:13:50.145Z,16.48
2022-10-24T14:19:20.225Z,16.59
2022-10-24T14:24:49.111Z,16.40
2022-10-24T14:30:19.160Z,16.68
2022-10-24T14:35:42.462Z,16.70
2022-10-24T14:41:10.158Z,16.86
2022-10-24T14:46:37.210Z,16.67
2022-10-24T14:52:04.805Z,16.68
2022-10-24T14:57:30.082Z,16.71
2022-10-24T15:02:55.328Z,16.39
2022-10-24T15:08:35.955Z,16.27
2022-10-24T15:14:06.995Z,16.37
2022-10-24T15:19:30.519Z,16.04
2022-10-24T15:24:54.656Z,16.20
2022-10-24T15:30:21.154Z,16.25
2022-10-24T15:35:44.374Z,16.13
2022-10-24T15:41:07.501Z,16.22
2022-10-24T15:46:31.973Z,16.01
2022-10-24T15:51:55.113Z,15.89
2022-10-24T15:57:20.765Z,15.71
2022-10-24T16:02:48.371Z,15.70
2022-10-24T16:08:14.779Z,15.66
2022-10-24T16:13:37.915Z,15.78
2022-10-24T16:19:02.414Z,15.71
2022-10-24T16:24:25.769Z,15.60
2022-10-24T16:29:48.958Z,15.61
2022-10-24T16:35:17.863Z,15.53
2022-10-24T16:40:42.106Z,15.73
2022-10-24T16:46:05.435Z,15.62
2022-10-24T16:51:32.600Z,15.57
2022-10-24T16:56:55.987Z,15.63
2022-10-24T17:02:19.280Z,15.60
2022-10-24T17:07:44.346Z,15.46
2022-10-24T17:13:08.026Z,15.49
2022-10-24T17:18:31.046Z,15.13
2022-10-24T17:23:55.998Z,15.26
2022-10-24T17:29:25.065Z,15.26
2022-10-24T17:34:50.107Z,15.21
2022-10-24T17:40:17.016Z,15.23
2022-10-24T17:45:40.597Z,15.21
2022-10-24T17:51:03.658Z,15.34
2022-10-24T17:56:28.320Z,15.16
2022-10-24T18:01:51.495Z,14.97
2022-10-24T18:07:14.987Z,15.04
2022-10-24T18:12:40.548Z,15.05
2022-10-24T18:18:03.685Z,14.89
2022-10-24T18:23:26.878Z,14.93
2022-10-24T18:28:52.659Z,14.97
2022-10-24T18:34:15.757Z,14.84
2022-10-24T18:39:38.815Z,14.94
2022-10-24T18:45:04.183Z,14.83
2022-10-24T18:50:27.990Z,14.74
2022-10-24T18:55:51.629Z,14.75
2022-10-24T19:01:23.286Z,14.90
2022-10-24T19:06:47.208Z,14.90
2022-10-24T19:12:10.888Z,14.70
2022-10-24T19:17:35.451Z,14.64
2022-10-24T19:23:04.930Z,14.63
2022-10-24T19:28:28.116Z,14.51
2022-10-24T19:33:54.079Z,14.46
2022-10-24T19:39:17.150Z,14.42
2022-10-24T19:44:42.717Z,14.25
2022-10-24T19:50:08.586Z,14.28
2022-10-24T19:55:31.702Z,14.49
2022-10-24T20:00:54.763Z,14.40
2022-10-24T20:06:19.556Z,14.31
2022-10-24T20:11:42.581Z,14.30
2022-10-24T20:17:05.600Z,14.36
2022-10-24T20:22:30.069Z,14.31
2022-10-24T20:27:53.311Z,14.25
2022-10-24T20:33:16.561Z,14.38
2022-10-24T20:38:40.971Z,14.25
2022-10-24T20:44:04.797Z,14.44
2022-10-24T20:49:27.886Z,14.40
2022-10-24T20:54:52.297Z,14.39
2022-10-24T21:00:15.665Z,14.16
2022-10-24T21:05:38.738Z,14.23
2022-10-24T21:11:07.743Z,14.21
2022-10-24T21:16:31.202Z,14.17
2022-10-24T21:21:54.326Z,14.27
2022-10-24T21:27:18.686Z,14.44
2022-10-24T21:32:41.811Z,14.29
2022-10-24T21:38:04.843Z,14.44
2022-10-24T21:43:29.346Z,14.55
2022-10-24T21:48:53.289Z,14.53
2022-10-24T21:54:18.146Z,14.54
2022-10-24T21:59:42.636Z,14.46
2022-10-24T22:05:06.449Z,14.41
2022-10-24T22:10:29.551Z,14.53
2022-10-24T22:15:54.342Z,14.39
2022-10-24T22:21:23.885Z,14.40
2022-10-24T22:26:47.226Z,14.54
2022-10-24T22:32:13.687Z,14.60
2022-10-24T22:37:37.111Z,14.50
2022-10-24T22:43:00.546Z,14.26
2022-10-24T22:48:28.377Z,14.33
2022-10-24T22:53:51.933Z,14.43
2022-10-24T22:59:15.663Z,14.63
2022-10-24T23:04:43.068Z,14.56
2022-10-24T23:10:10.344Z,14.42
2022-10-24T23:15:36.255Z,14.41
2022-10-24T23:21:04.836Z,14.51
2022-10-24T23:26:34.146Z,14.49
2022-10-24T23:31:57.688Z,14.26
2022-10-24T23:37:30.129Z,14.07
2022-10-24T23:42:54.090Z,13.93
2022-10-24T23:48:25.318Z,13.92
2022-10-24T23:53:52.842Z,13.93
2022-10-24T23:59:15.967Z,13.84
